Terminal Aerodrome Forecast
Issued by NWS

Home | Current Version | Previous Version | Text Only | Print | Product List | Glossary On
Versions: 1 2 3 4 5 6 7 8 9 10 11 12 13 14 15 16 17 18
000
FTUS43 KAPX 251730
TAFPLN
TAF
KPLN 251730Z 2518/2618 30011G17KT P6SM BKN035
     FM252000 30011G17KT P6SM SCT040
     FM252300 29010KT P6SM SKC
     FM260100 VRB03KT P6SM SKC
     FM261400 27007KT P6SM FEW060=

USA.gov is the U.S. government's official web portal to all federal, state and local government web resources and services.